Terminal Aerodrome Forecast
Issued by NWS Charleston, WV

Current Version | Previous Version | Graphics & Text | Print | Product List | Glossary On
Versions: 1 2 3 4 5 6 7 8 9 10 11 12 13 14 15 16 17 18 19 20 21 22 23 24 25 26 27
000
FTUS41 KRLX 171700
TAFEKN
TAF
KEKN 171738Z 1718/1818 27004KT P6SM VCTS SCT025 OVC035CB
     FM171900 28004KT P6SM VCSH BKN040
     FM180300 00000KT 4SM BR SCT020 BKN045
     FM180600 00000KT 2SM BR SCT002 BKN050
     FM181500 17005KT 6SM SHRA VCTS BKN035CB
     FM181700 20004KT 4SM SHRA BR VCTS BKN028CB=

USA.gov is the U.S. government's official web portal to all federal, state and local government web resources and services.